Main page
METAR-TAF:

METAR-TAF

Airports :

Whiteside County Airport (Jos. H. Bittorf Field)

Sterling / Rock Falls, Illinois, United States

latitude: 41-45N, longitude: 089-40W, elevation: 646 ft

Current weather observation

The report was made 50 minutes ago, at 15:56 UTC
Wind 12 mph from the North
Temperature 39°F
Humidity 75%
Pressure 30.18 in. Hg
Visibility: 10 miles
Clear sky

METAR: KSQI 041556Z 36010KT 10SM CLR 04/00 A3018 RMK AO2 SLP087 T00440000

Time: 11:46 (16:46 UTC)


TAF: missing

Weather observations and forecasts of more than 4000 airports (METAR and TAF reports).

The available stations are represented by yellow and red dots on the map.

Hover mouse over dot to see the name of the station.

Then click to see weather observations and forecasts.

To change the map : click on the green buttons with a black cross to zoom in, on the green button with a dash to zoom out, or on the green arrows for adjacent maps.


METAR-TAF: